createdAt,value
2019-05-15T00:00:12.078Z,4.37
2019-05-15T00:01:12.068Z,4.42
2019-05-15T00:02:12.057Z,4.41
2019-05-15T00:03:12.050Z,4.35
2019-05-15T00:04:12.041Z,4.35
2019-05-15T00:05:12.036Z,4.30
2019-05-15T00:06:12.020Z,4.28
2019-05-15T00:07:12.013Z,4.23
2019-05-15T00:08:12.008Z,4.19
2019-05-15T00:09:11.993Z,4.19
2019-05-15T00:10:11.985Z,4.17
2019-05-15T00:11:11.977Z,4.17
2019-05-15T00:12:11.967Z,4.19
2019-05-15T00:13:11.958Z,4.16
2019-05-15T00:14:11.949Z,4.06
2019-05-15T00:15:11.939Z,4.16
2019-05-15T00:16:11.928Z,4.10
2019-05-15T00:17:11.919Z,4.02
2019-05-15T00:18:11.912Z,4.01
2019-05-15T00:19:11.904Z,4.04
2019-05-15T00:20:11.891Z,4.01
2019-05-15T00:21:11.888Z,4.02
2019-05-15T00:22:11.878Z,4.04
2019-05-15T00:23:11.869Z,3.94
2019-05-15T00:24:13.224Z,3.98
2019-05-15T00:25:11.848Z,3.86
2019-05-15T00:26:11.838Z,3.92
2019-05-15T00:27:11.828Z,3.87
2019-05-15T00:28:11.816Z,3.87
2019-05-15T00:29:16.116Z,3.95
2019-05-15T00:30:11.799Z,3.84
2019-05-15T00:31:11.789Z,3.84
2019-05-15T00:32:11.780Z,3.91
2019-05-15T00:33:11.771Z,3.83
2019-05-15T00:34:12.725Z,3.92
2019-05-15T00:35:11.752Z,3.94
2019-05-15T00:36:11.744Z,3.92
2019-05-15T00:37:11.740Z,3.92
2019-05-15T00:38:11.724Z,3.84
2019-05-15T00:39:11.716Z,3.84
2019-05-15T00:40:11.716Z,3.86
2019-05-15T00:41:11.697Z,3.77
2019-05-15T00:42:11.687Z,3.76
2019-05-15T00:43:11.677Z,3.73
2019-05-15T00:44:11.669Z,3.69
2019-05-15T00:45:11.659Z,3.68
2019-05-15T00:46:11.649Z,3.68
2019-05-15T00:47:11.640Z,3.66
2019-05-15T00:48:11.631Z,3.66
2019-05-15T00:49:11.633Z,3.60
2019-05-15T00:50:11.613Z,3.63
2019-05-15T00:51:14.639Z,3.58
2019-05-15T00:52:12.317Z,3.60
2019-05-15T00:53:11.583Z,3.53
2019-05-15T00:54:11.574Z,3.53
2019-05-15T00:55:11.565Z,3.56
2019-05-15T00:56:11.554Z,3.59
2019-05-15T00:57:11.545Z,3.51
2019-05-15T00:58:11.532Z,3.55
2019-05-15T00:59:23.140Z,3.51
2019-05-15T01:00:11.520Z,3.51
2019-05-15T01:01:11.509Z,3.47
2019-05-15T01:02:11.499Z,3.51
2019-05-15T01:03:11.489Z,3.51
2019-05-15T01:04:11.480Z,3.50
2019-05-15T01:05:11.472Z,3.45
2019-05-15T01:06:11.461Z,3.44
2019-05-15T01:07:11.454Z,3.50
2019-05-15T01:08:11.442Z,3.56
2019-05-15T01:09:11.440Z,3.47
2019-05-15T01:10:11.425Z,3.45
2019-05-15T01:11:11.415Z,3.40
2019-05-15T01:12:11.401Z,3.48
2019-05-15T01:13:11.416Z,3.48
2019-05-15T01:14:12.129Z,3.48
2019-05-15T01:15:11.374Z,3.48
2019-05-15T01:16:11.370Z,3.41
2019-05-15T01:17:11.363Z,3.44
2019-05-15T01:18:11.349Z,3.41
2019-05-15T01:19:11.340Z,3.36
2019-05-15T01:20:11.327Z,3.32
2019-05-15T01:21:11.319Z,3.32
2019-05-15T01:22:11.313Z,3.28
2019-05-15T01:23:11.314Z,3.32
2019-05-15T01:24:11.290Z,3.31
2019-05-15T01:25:11.284Z,3.28
2019-05-15T01:26:11.268Z,3.19
2019-05-15T01:27:11.261Z,3.21
2019-05-15T01:28:11.251Z,3.22
2019-05-15T01:29:11.250Z,3.25
2019-05-15T01:30:11.232Z,3.23
2019-05-15T01:31:11.224Z,3.18
2019-05-15T01:32:11.214Z,3.18
2019-05-15T01:33:11.211Z,3.22
2019-05-15T01:34:11.193Z,3.18
2019-05-15T01:35:11.187Z,3.11
2019-05-15T01:36:11.175Z,3.08
2019-05-15T01:37:11.166Z,3.07
2019-05-15T01:38:11.154Z,3.16
2019-05-15T01:39:11.143Z,3.03
2019-05-15T01:40:11.140Z,3.04
2019-05-15T01:41:11.128Z,3.14
2019-05-15T01:42:11.123Z,3.11
2019-05-15T01:43:11.108Z,3.03
2019-05-15T01:44:11.097Z,3.05
2019-05-15T01:45:11.088Z,3.05
2019-05-15T01:46:11.078Z,3.00
2019-05-15T01:47:11.071Z,3.01
2019-05-15T01:48:11.059Z,2.93
2019-05-15T01:49:11.048Z,2.92
2019-05-15T01:50:11.043Z,2.90
2019-05-15T01:51:11.040Z,2.92
2019-05-15T01:52:11.020Z,3.01
2019-05-15T01:53:11.017Z,3.10
2019-05-15T01:54:11.003Z,3.05
2019-05-15T01:55:10.991Z,2.98
2019-05-15T01:56:10.990Z,2.89
2019-05-15T01:57:10.974Z,3.00
2019-05-15T01:58:10.966Z,2.93
2019-05-15T01:59:10.955Z,3.01
2019-05-15T02:00:10.945Z,2.85
2019-05-15T02:01:10.936Z,2.89
2019-05-15T02:02:10.925Z,2.86
2019-05-15T02:03:10.931Z,2.90
2019-05-15T02:04:10.903Z,2.89
2019-05-15T02:05:10.895Z,2.92
2019-05-15T02:06:10.895Z,2.93
2019-05-15T02:07:10.883Z,2.93
2019-05-15T02:08:10.865Z,2.93
2019-05-15T02:09:10.858Z,2.93
2019-05-15T02:10:10.846Z,2.95
2019-05-15T02:11:10.837Z,3.05
2019-05-15T02:12:10.825Z,3.07
2019-05-15T02:13:10.816Z,3.04
2019-05-15T02:14:10.809Z,3.03
2019-05-15T02:15:10.796Z,3.03
2019-05-15T02:16:10.785Z,2.93
2019-05-15T02:17:10.784Z,2.87
2019-05-15T02:18:10.769Z,2.95
2019-05-15T02:19:10.761Z,2.90
2019-05-15T02:20:10.749Z,2.89
2019-05-15T02:21:10.737Z,2.90
2019-05-15T02:22:10.732Z,2.92
2019-05-15T02:23:12.087Z,2.92
2019-05-15T02:24:10.707Z,2.83
2019-05-15T02:25:10.702Z,2.86
2019-05-15T02:26:10.688Z,2.82
2019-05-15T02:27:10.719Z,2.77
2019-05-15T02:28:10.661Z,2.80
2019-05-15T02:29:13.769Z,2.80
2019-05-15T02:30:22.101Z,2.85
2019-05-15T02:31:10.806Z,2.79
2019-05-15T02:32:10.634Z,2.74
2019-05-15T02:33:11.182Z,2.71
2019-05-15T02:34:10.621Z,2.69
2019-05-15T02:35:10.608Z,2.69
2019-05-15T02:36:10.608Z,2.72
2019-05-15T02:37:10.591Z,2.62
2019-05-15T02:38:15.188Z,2.77
2019-05-15T02:39:10.551Z,2.80
2019-05-15T02:40:10.684Z,2.71
2019-05-15T02:41:10.574Z,2.77
2019-05-15T02:42:10.529Z,2.64
2019-05-15T02:43:10.762Z,2.71
2019-05-15T02:44:11.059Z,2.62
2019-05-15T02:45:10.824Z,2.56
2019-05-15T02:46:10.516Z,2.64
2019-05-15T02:47:10.479Z,2.56
2019-05-15T02:48:10.470Z,2.51
2019-05-15T02:49:10.461Z,2.54
2019-05-15T02:50:11.201Z,2.51
2019-05-15T02:51:10.490Z,2.53
2019-05-15T02:52:10.437Z,2.51
2019-05-15T02:53:10.611Z,2.51
2019-05-15T02:54:10.725Z,2.53
2019-05-15T02:55:10.404Z,2.56
2019-05-15T02:56:10.393Z,2.47
2019-05-15T02:57:10.390Z,2.49
2019-05-15T02:58:10.685Z,2.47
2019-05-15T02:59:10.365Z,2.46
2019-05-15T03:00:11.069Z,2.50
2019-05-15T03:01:10.344Z,2.47
2019-05-15T03:02:10.538Z,2.46
2019-05-15T03:03:10.325Z,2.49
2019-05-15T03:04:10.314Z,2.50
2019-05-15T03:05:10.326Z,2.44
2019-05-15T03:06:10.361Z,2.51
2019-05-15T03:07:10.284Z,2.43
2019-05-15T03:08:10.279Z,2.35
2019-05-15T03:09:10.269Z,2.43
2019-05-15T03:10:10.255Z,2.43
2019-05-15T03:11:10.279Z,2.33
2019-05-15T03:12:10.235Z,2.38
2019-05-15T03:13:10.376Z,2.35
2019-05-15T03:14:10.213Z,2.33
2019-05-15T03:15:10.293Z,2.32
2019-05-15T03:16:10.559Z,2.32
2019-05-15T03:17:10.184Z,2.35
2019-05-15T03:18:10.385Z,2.38
2019-05-15T03:19:10.244Z,2.31
2019-05-15T03:20:10.896Z,2.38
2019-05-15T03:21:10.191Z,2.33
2019-05-15T03:22:10.171Z,2.35
2019-05-15T03:23:10.359Z,2.36
2019-05-15T03:24:10.424Z,2.32
2019-05-15T03:25:10.788Z,2.38
2019-05-15T03:26:10.109Z,2.39
2019-05-15T03:27:10.096Z,2.29
2019-05-15T03:28:10.762Z,2.31
2019-05-15T03:29:10.138Z,2.36
2019-05-15T03:30:13.607Z,2.32
2019-05-15T03:31:31.071Z,2.38
2019-05-15T03:32:25.449Z,2.39
2019-05-15T03:33:18.529Z,2.32
2019-05-15T03:34:20.788Z,2.38
2019-05-15T03:35:14.184Z,2.38
2019-05-15T03:36:13.087Z,2.39
2019-05-15T03:37:12.080Z,2.43
2019-05-15T03:38:09.973Z,2.47
2019-05-15T03:39:09.969Z,2.31
2019-05-15T03:40:10.713Z,2.42
2019-05-15T03:41:10.583Z,2.50
2019-05-15T03:42:09.932Z,2.57
2019-05-15T03:43:09.926Z,2.54
2019-05-15T03:44:09.948Z,2.54
2019-05-15T03:45:10.580Z,2.53
2019-05-15T03:46:09.894Z,2.64
2019-05-15T03:47:09.898Z,2.54
2019-05-15T03:48:09.874Z,2.65
2019-05-15T03:49:09.864Z,2.68
2019-05-15T03:50:09.969Z,2.57
2019-05-15T03:51:09.860Z,2.60
2019-05-15T03:52:10.187Z,2.62
2019-05-15T03:53:10.662Z,2.57
2019-05-15T03:54:09.822Z,2.72
2019-05-15T03:55:11.171Z,2.60
2019-05-15T03:56:10.097Z,2.71
2019-05-15T03:57:10.010Z,2.68
2019-05-15T03:58:10.320Z,2.65
2019-05-15T03:59:09.756Z,2.72
2019-05-15T04:00:10.031Z,2.71
2019-05-15T04:01:27.702Z,2.71
2019-05-15T04:02:09.756Z,2.74
2019-05-15T04:03:10.758Z,2.83
2019-05-15T04:04:09.801Z,2.87
2019-05-15T04:05:11.961Z,2.92
2019-05-15T04:06:10.222Z,2.86
2019-05-15T04:07:09.688Z,2.86
2019-05-15T04:08:10.893Z,2.89
2019-05-15T04:09:09.946Z,2.95
2019-05-15T04:10:10.249Z,3.07
2019-05-15T04:11:09.649Z,3.04
2019-05-15T04:12:09.688Z,3.08
2019-05-15T04:13:09.984Z,3.18
2019-05-15T04:14:10.311Z,3.16
2019-05-15T04:15:10.203Z,3.23
2019-05-15T04:16:10.452Z,3.21
2019-05-15T04:17:09.637Z,3.19
2019-05-15T04:18:09.934Z,3.21
2019-05-15T04:19:09.917Z,3.19
2019-05-15T04:20:09.961Z,3.31
2019-05-15T04:21:09.752Z,3.41
2019-05-15T04:22:09.628Z,3.32
2019-05-15T04:23:10.387Z,3.45
2019-05-15T04:24:09.614Z,3.41
2019-05-15T04:25:10.003Z,3.51
2019-05-15T04:26:09.644Z,3.50
2019-05-15T04:27:10.648Z,3.56
2019-05-15T04:28:09.992Z,3.59
2019-05-15T04:29:09.890Z,3.70
2019-05-15T04:30:10.668Z,3.73
2019-05-15T04:31:09.650Z,3.81
2019-05-15T04:32:10.602Z,3.96
2019-05-15T04:33:10.023Z,3.94
2019-05-15T04:34:09.421Z,4.10
2019-05-15T04:35:09.858Z,4.17
2019-05-15T04:36:09.977Z,4.28
2019-05-15T04:37:09.633Z,4.22
2019-05-15T04:38:09.695Z,4.20
2019-05-15T04:39:10.007Z,4.32
2019-05-15T04:40:09.765Z,4.40
2019-05-15T04:41:09.982Z,4.53
2019-05-15T04:42:09.346Z,4.56
2019-05-15T04:43:10.646Z,4.74
2019-05-15T04:44:10.303Z,4.80
2019-05-15T04:45:10.410Z,4.93
2019-05-15T04:46:10.071Z,4.99
2019-05-15T04:47:09.898Z,5.14
2019-05-15T04:48:10.404Z,5.21
2019-05-15T04:49:09.450Z,5.28
2019-05-15T04:50:09.573Z,5.28
2019-05-15T04:51:09.974Z,5.39
2019-05-15T04:52:10.359Z,5.48
2019-05-15T04:53:10.546Z,5.48
2019-05-15T04:54:09.766Z,5.59
2019-05-15T04:55:10.550Z,5.62
2019-05-15T04:56:09.650Z,5.65
2019-05-15T04:57:09.474Z,5.71
2019-05-15T04:58:10.207Z,5.71
2019-05-15T04:59:10.141Z,5.73
2019-05-15T05:00:09.840Z,5.82
2019-05-15T05:01:09.679Z,5.59
2019-05-15T05:02:17.424Z,5.53
2019-05-15T05:03:09.996Z,5.51
2019-05-15T05:04:09.532Z,5.61
2019-05-15T05:05:10.154Z,5.57
2019-05-15T05:06:09.924Z,5.64
2019-05-15T05:07:09.572Z,5.61
2019-05-15T05:08:09.428Z,5.62
2019-05-15T05:09:09.414Z,5.72
2019-05-15T05:10:09.871Z,5.71
2019-05-15T05:11:09.921Z,5.71
2019-05-15T05:12:09.072Z,5.76
2019-05-15T05:13:09.196Z,5.75
2019-05-15T05:14:09.051Z,5.89
2019-05-15T05:15:09.047Z,5.97
2019-05-15T05:16:09.671Z,5.86
2019-05-15T05:17:09.502Z,5.84
2019-05-15T05:18:09.656Z,5.61
2019-05-15T05:19:09.163Z,5.54
2019-05-15T05:20:09.000Z,5.56
2019-05-15T05:21:08.991Z,5.56
2019-05-15T05:22:08.982Z,5.71
2019-05-15T05:23:08.975Z,5.79
2019-05-15T05:24:08.971Z,5.80
2019-05-15T05:25:08.954Z,5.90
2019-05-15T05:26:11.234Z,5.98
2019-05-15T05:27:08.937Z,5.97
2019-05-15T05:28:08.928Z,6.01
2019-05-15T05:29:08.921Z,6.08
2019-05-15T05:30:08.911Z,6.09
2019-05-15T05:31:08.904Z,6.20
2019-05-15T05:32:09.268Z,6.20
2019-05-15T05:33:08.887Z,6.30
2019-05-15T05:34:08.878Z,6.44
2019-05-15T05:35:08.869Z,6.49
2019-05-15T05:36:08.868Z,6.60
2019-05-15T05:37:08.853Z,6.52
2019-05-15T05:38:08.842Z,6.62
2019-05-15T05:39:11.413Z,6.69
2019-05-15T05:40:08.830Z,6.72
2019-05-15T05:41:08.816Z,6.75
2019-05-15T05:42:08.807Z,6.69
2019-05-15T05:43:09.420Z,6.88
2019-05-15T05:44:08.795Z,7.03
2019-05-15T05:45:09.528Z,6.93
2019-05-15T05:46:09.398Z,7.06
2019-05-15T05:47:09.283Z,7.23
2019-05-15T05:48:08.981Z,7.33
2019-05-15T05:49:08.749Z,7.40
2019-05-15T05:50:08.739Z,7.39
2019-05-15T05:51:09.439Z,7.51
2019-05-15T05:52:08.726Z,7.58
2019-05-15T05:53:08.930Z,7.38
2019-05-15T05:54:08.707Z,7.54
2019-05-15T05:55:09.089Z,7.56
2019-05-15T05:56:09.113Z,7.60
2019-05-15T05:57:09.079Z,7.54
2019-05-15T05:58:08.675Z,7.82
2019-05-15T05:59:09.377Z,7.60
2019-05-15T06:00:09.339Z,7.66
2019-05-15T06:01:09.265Z,7.83
2019-05-15T06:02:08.639Z,7.88
2019-05-15T06:03:08.882Z,7.54
2019-05-15T06:04:08.624Z,7.56
2019-05-15T06:05:08.619Z,7.75
2019-05-15T06:06:09.708Z,7.75
2019-05-15T06:07:13.856Z,8.05
2019-05-15T06:08:08.595Z,8.13
2019-05-15T06:09:09.212Z,8.28
2019-05-15T06:10:08.995Z,8.36
2019-05-15T06:11:09.721Z,8.45
2019-05-15T06:12:08.568Z,8.51
2019-05-15T06:13:08.856Z,8.33
2019-05-15T06:14:08.850Z,8.36
2019-05-15T06:15:09.053Z,8.33
2019-05-15T06:16:08.679Z,8.42
2019-05-15T06:17:08.540Z,8.27
2019-05-15T06:18:08.516Z,8.38
2019-05-15T06:19:08.507Z,8.18
2019-05-15T06:20:08.527Z,8.19
2019-05-15T06:21:09.222Z,8.33
2019-05-15T06:22:08.874Z,8.51
2019-05-15T06:23:08.571Z,8.71
2019-05-15T06:24:13.161Z,8.81
2019-05-15T06:25:11.222Z,8.89
2019-05-15T06:26:09.367Z,8.99
2019-05-15T06:27:08.447Z,8.97
2019-05-15T06:28:09.113Z,9.10
2019-05-15T06:29:08.958Z,9.31
2019-05-15T06:30:08.934Z,9.32
2019-05-15T06:31:08.862Z,9.44
2019-05-15T06:32:08.410Z,9.41
2019-05-15T06:33:12.776Z,9.46
2019-05-15T06:34:08.444Z,9.34
2019-05-15T06:35:08.788Z,9.39
2019-05-15T06:36:09.019Z,9.41
2019-05-15T06:37:08.483Z,9.41
2019-05-15T06:38:08.605Z,9.64
2019-05-15T06:39:08.619Z,9.66
2019-05-15T06:40:08.645Z,9.86
2019-05-15T06:41:08.854Z,10.04
2019-05-15T06:42:08.784Z,10.13
2019-05-15T06:43:08.759Z,10.12
2019-05-15T06:44:08.333Z,10.15
2019-05-15T06:45:08.332Z,10.20
2019-05-15T06:46:09.214Z,10.25
2019-05-15T06:47:08.305Z,10.26
2019-05-15T06:48:09.480Z,10.37
2019-05-15T06:49:08.515Z,10.38
2019-05-15T06:50:08.683Z,10.26
2019-05-15T06:51:08.867Z,10.42
2019-05-15T06:52:08.845Z,10.75
2019-05-15T06:53:10.676Z,10.64
2019-05-15T06:54:08.867Z,10.92
2019-05-15T06:55:09.088Z,10.93
2019-05-15T06:56:08.255Z,11.12
2019-05-15T06:57:09.051Z,11.40
2019-05-15T06:58:09.209Z,11.19
2019-05-15T06:59:08.788Z,11.40
2019-05-15T07:00:08.554Z,11.78
2019-05-15T07:01:08.881Z,11.70
2019-05-15T07:02:08.212Z,12.10
2019-05-15T07:03:20.130Z,12.75
2019-05-15T07:04:08.484Z,13.09
2019-05-15T07:05:08.277Z,13.52
2019-05-15T07:06:09.430Z,13.81
2019-05-15T07:07:11.022Z,13.89
2019-05-15T07:08:09.090Z,14.04
2019-05-15T07:09:09.490Z,14.07
2019-05-15T07:10:09.000Z,14.77
2019-05-15T07:11:08.758Z,14.89
2019-05-15T07:12:08.159Z,15.14
2019-05-15T07:13:08.867Z,15.03
2019-05-15T07:14:08.825Z,15.14
2019-05-15T07:15:09.065Z,15.95
2019-05-15T07:16:08.398Z,16.56
2019-05-15T07:17:09.126Z,16.66
2019-05-15T07:18:08.739Z,16.74
2019-05-15T07:19:08.402Z,16.50
2019-05-15T07:20:08.665Z,16.36
2019-05-15T07:21:10.226Z,15.91
2019-05-15T07:22:09.327Z,13.78
2019-05-15T07:23:08.844Z,14.54
2019-05-15T07:24:09.181Z,15.49
2019-05-15T07:25:08.898Z,15.97
2019-05-15T07:26:09.439Z,17.16
2019-05-15T07:27:08.102Z,17.20
2019-05-15T07:28:08.777Z,17.64
2019-05-15T07:29:08.097Z,17.85
2019-05-15T07:30:11.249Z,17.09
2019-05-15T07:31:11.657Z,17.64
2019-05-15T07:32:08.190Z,17.65
2019-05-15T07:33:08.796Z,17.30
2019-05-15T07:34:08.463Z,16.90
2019-05-15T07:35:08.522Z,17.54
2019-05-15T07:36:08.531Z,18.15
2019-05-15T07:37:09.701Z,18.89
2019-05-15T07:38:08.154Z,18.59
2019-05-15T07:39:08.428Z,15.92
2019-05-15T07:40:08.438Z,15.62
2019-05-15T07:41:10.129Z,15.98
2019-05-15T07:42:08.591Z,17.23
2019-05-15T07:43:09.352Z,17.71
2019-05-15T07:44:08.073Z,18.23
2019-05-15T07:45:08.344Z,18.31
2019-05-15T07:46:08.562Z,18.20
2019-05-15T07:47:08.900Z,18.95
2019-05-15T07:48:09.172Z,19.19
2019-05-15T07:49:09.031Z,16.76
2019-05-15T07:50:08.746Z,16.79
2019-05-15T07:51:11.567Z,16.41
2019-05-15T07:52:08.610Z,16.20
2019-05-15T07:53:08.774Z,16.58
2019-05-15T07:54:09.156Z,16.32
2019-05-15T07:55:08.772Z,15.67
2019-05-15T07:56:11.816Z,14.72
2019-05-15T07:57:08.970Z,13.77
2019-05-15T07:58:08.586Z,13.83
2019-05-15T07:59:08.172Z,13.85
2019-05-15T08:00:08.335Z,13.62
2019-05-15T08:01:10.074Z,13.77
2019-05-15T08:02:08.494Z,13.63
2019-05-15T08:03:10.341Z,13.33
2019-05-15T08:04:22.652Z,13.35
2019-05-15T08:05:08.429Z,13.83
2019-05-15T08:06:08.774Z,14.05
2019-05-15T08:07:09.147Z,13.75
2019-05-15T08:08:08.819Z,13.79
2019-05-15T08:09:08.489Z,13.79
2019-05-15T08:10:08.684Z,13.97
2019-05-15T08:11:17.446Z,13.86
2019-05-15T08:12:08.369Z,13.78
2019-05-15T08:13:08.881Z,13.31
2019-05-15T08:14:08.969Z,13.13
2019-05-15T08:15:08.852Z,13.18
2019-05-15T08:16:08.622Z,13.53
2019-05-15T08:17:08.707Z,13.67
2019-05-15T08:19:08.613Z,13.68
2019-05-15T08:20:09.035Z,13.41
2019-05-15T08:21:08.950Z,13.37
2019-05-15T08:22:08.908Z,12.80
2019-05-15T08:23:08.514Z,12.62
2019-05-15T08:24:08.645Z,12.64
2019-05-15T08:25:13.100Z,12.93
2019-05-15T08:26:05.719Z,13.77
2019-05-15T08:26:08.807Z,13.13
2019-05-15T08:27:08.343Z,13.15
2019-05-15T08:28:08.817Z,12.94
2019-05-15T08:29:08.481Z,13.05
2019-05-15T08:30:08.921Z,12.78
2019-05-15T08:31:10.071Z,12.75
2019-05-15T08:32:08.430Z,12.55
2019-05-15T08:33:08.449Z,12.67
2019-05-15T08:34:15.350Z,12.64
2019-05-15T08:35:08.120Z,12.72
2019-05-15T08:36:08.497Z,12.73
2019-05-15T08:37:08.056Z,13.09
2019-05-15T08:38:08.780Z,13.18
2019-05-15T08:39:08.522Z,13.12
2019-05-15T08:40:08.554Z,13.13
2019-05-15T08:41:11.433Z,13.09
2019-05-15T08:42:08.109Z,13.30
2019-05-15T08:43:11.412Z,13.18
2019-05-15T08:44:08.737Z,13.54
2019-05-15T08:45:09.185Z,13.23
2019-05-15T08:46:08.443Z,12.97
2019-05-15T08:47:08.228Z,12.94
2019-05-15T08:48:09.393Z,13.19
2019-05-15T08:49:09.139Z,12.85
2019-05-15T08:50:08.818Z,12.82
2019-05-15T08:51:08.763Z,13.01
2019-05-15T08:52:10.275Z,13.16
2019-05-15T08:53:08.389Z,13.72
2019-05-15T08:54:08.485Z,13.68
2019-05-15T08:55:08.562Z,14.25
2019-05-15T08:56:08.560Z,14.69
2019-05-15T08:57:08.519Z,14.53
2019-05-15T08:58:13.624Z,13.92
2019-05-15T08:59:08.869Z,13.47
2019-05-15T09:00:09.764Z,13.27
2019-05-15T09:01:09.711Z,13.31
2019-05-15T09:02:08.000Z,13.72
2019-05-15T09:03:08.695Z,14.40
2019-05-15T09:04:08.984Z,14.23
2019-05-15T09:05:08.627Z,14.59
2019-05-15T09:06:09.082Z,14.11
2019-05-15T09:07:09.162Z,14.00
2019-05-15T09:08:09.269Z,13.50
2019-05-15T09:09:09.565Z,13.60
2019-05-15T09:10:09.009Z,13.57
2019-05-15T09:11:08.787Z,13.13
2019-05-15T09:12:08.410Z,13.12
2019-05-15T09:13:09.649Z,13.60
2019-05-15T09:14:08.265Z,13.93
2019-05-15T09:15:07.852Z,14.07
2019-05-15T09:16:08.364Z,14.37
2019-05-15T09:17:08.679Z,14.53
2019-05-15T09:18:15.044Z,14.63
2019-05-15T09:19:08.405Z,14.58
2019-05-15T09:20:08.212Z,14.70
2019-05-15T09:21:08.861Z,14.86
2019-05-15T09:22:09.188Z,14.18
2019-05-15T09:23:08.992Z,14.29
2019-05-15T09:24:09.382Z,14.23
2019-05-15T09:25:08.959Z,14.58
2019-05-15T09:26:09.178Z,14.54
2019-05-15T09:27:09.824Z,14.72
2019-05-15T09:28:08.642Z,15.03
2019-05-15T09:29:09.391Z,15.02
2019-05-15T09:30:08.771Z,15.04
2019-05-15T09:31:08.408Z,14.89
2019-05-15T09:32:08.598Z,14.55
2019-05-15T09:33:08.695Z,14.37
2019-05-15T09:34:09.103Z,14.20
2019-05-15T09:35:08.322Z,14.18
2019-05-15T09:36:09.073Z,14.04
2019-05-15T09:37:08.593Z,14.23
2019-05-15T09:38:08.701Z,13.60
2019-05-15T09:39:08.711Z,13.89
2019-05-15T09:40:08.844Z,14.17
2019-05-15T09:41:09.004Z,14.45
2019-05-15T09:42:08.447Z,14.05
2019-05-15T09:43:10.926Z,13.90
2019-05-15T09:44:08.071Z,13.72
2019-05-15T09:45:08.958Z,13.78
2019-05-15T09:46:10.301Z,13.77
2019-05-15T09:47:09.162Z,14.11
2019-05-15T09:48:10.091Z,14.37
2019-05-15T09:49:08.859Z,14.41
2019-05-15T09:50:08.502Z,14.63
2019-05-15T09:51:09.274Z,14.53
2019-05-15T09:52:09.037Z,14.60
2019-05-15T09:53:09.269Z,14.48
2019-05-15T09:54:08.100Z,14.66
2019-05-15T09:55:08.585Z,14.77
2019-05-15T09:56:08.099Z,14.86
2019-05-15T09:57:10.670Z,15.09
2019-05-15T09:58:08.255Z,15.36
2019-05-15T09:59:08.859Z,14.79
2019-05-15T10:00:08.975Z,14.60
2019-05-15T10:01:08.566Z,14.40
2019-05-15T10:02:09.237Z,14.53
2019-05-15T10:03:09.559Z,14.69
2019-05-15T10:04:08.319Z,14.73
2019-05-15T10:05:11.241Z,14.60
2019-05-15T10:06:08.181Z,14.29
2019-05-15T10:07:08.257Z,14.51
2019-05-15T10:08:08.938Z,14.12
2019-05-15T10:09:09.115Z,14.11
2019-05-15T10:10:08.716Z,14.12
2019-05-15T10:11:09.096Z,14.15
2019-05-15T10:12:09.132Z,14.23
2019-05-15T10:13:09.056Z,14.05
2019-05-15T10:14:09.851Z,14.43
2019-05-15T10:15:11.244Z,14.18
2019-05-15T10:16:08.404Z,13.81
2019-05-15T10:17:09.152Z,13.86
2019-05-15T10:18:09.868Z,13.85
2019-05-15T10:19:09.000Z,13.79
2019-05-15T10:20:09.111Z,13.92
2019-05-15T10:21:09.035Z,14.08
2019-05-15T10:22:09.757Z,14.08
2019-05-15T10:23:08.756Z,13.96
2019-05-15T10:24:09.476Z,14.15
2019-05-15T10:25:08.372Z,14.26
2019-05-15T10:26:13.875Z,14.29
2019-05-15T10:27:08.777Z,14.68
2019-05-15T10:28:09.730Z,14.86
2019-05-15T10:29:09.122Z,15.03
2019-05-15T10:30:09.155Z,15.00
2019-05-15T10:31:09.432Z,14.92
2019-05-15T10:32:08.649Z,15.11
2019-05-15T10:33:08.525Z,15.33
2019-05-15T10:34:09.204Z,15.07
2019-05-15T10:35:24.112Z,14.96
2019-05-15T10:36:08.475Z,15.03
2019-05-15T10:37:08.416Z,14.43
2019-05-15T10:38:08.755Z,14.50
2019-05-15T10:39:08.347Z,14.59
2019-05-15T10:40:09.068Z,14.59
2019-05-15T10:41:13.828Z,14.69
2019-05-15T10:42:08.190Z,14.62
2019-05-15T10:43:09.037Z,14.62
2019-05-15T10:44:09.066Z,14.92
2019-05-15T10:45:08.366Z,15.11
2019-05-15T10:46:13.373Z,15.06
2019-05-15T10:47:08.822Z,14.92
2019-05-15T10:48:09.337Z,14.73
2019-05-15T10:49:08.609Z,14.58
2019-05-15T10:50:07.985Z,14.55
2019-05-15T10:51:10.197Z,14.45
2019-05-15T10:52:08.683Z,13.95
2019-05-15T10:53:10.931Z,13.96
2019-05-15T10:54:08.516Z,14.18
2019-05-15T10:55:09.179Z,14.40
2019-05-15T10:56:08.885Z,14.62
2019-05-15T10:57:08.679Z,14.73
2019-05-15T10:58:16.552Z,14.86
2019-05-15T10:59:08.572Z,15.03
2019-05-15T11:00:07.960Z,15.00
2019-05-15T11:01:11.048Z,15.02
2019-05-15T11:02:08.557Z,14.96
2019-05-15T11:03:08.857Z,14.54
2019-05-15T11:04:09.263Z,14.37
2019-05-15T11:05:09.341Z,14.14
2019-05-15T11:06:09.028Z,13.93
2019-05-15T11:07:09.669Z,14.22
2019-05-15T11:08:08.288Z,14.15
2019-05-15T11:09:08.409Z,14.33
2019-05-15T11:10:08.605Z,14.60
2019-05-15T11:11:09.162Z,14.63
2019-05-15T11:12:08.692Z,14.72
2019-05-15T11:13:08.973Z,14.70
2019-05-15T11:14:09.107Z,14.78
2019-05-15T11:15:10.974Z,15.03
2019-05-15T11:16:07.397Z,15.00
2019-05-15T11:17:07.395Z,14.89
2019-05-15T11:18:09.257Z,14.91
2019-05-15T11:19:07.989Z,15.02
2019-05-15T11:20:08.355Z,15.02
2019-05-15T11:21:08.245Z,15.22
2019-05-15T11:22:09.048Z,15.29
2019-05-15T11:23:08.082Z,15.35
2019-05-15T11:24:08.753Z,15.03
2019-05-15T11:25:09.810Z,14.94
2019-05-15T11:26:08.752Z,14.82
2019-05-15T11:27:09.991Z,14.99
2019-05-15T11:28:08.196Z,14.54
2019-05-15T11:29:09.610Z,13.79
2019-05-15T11:30:07.753Z,13.95
2019-05-15T11:31:10.352Z,14.23
2019-05-15T11:32:08.827Z,14.55
2019-05-15T11:33:09.536Z,14.53
2019-05-15T11:34:09.374Z,14.60
2019-05-15T11:35:07.339Z,14.66
2019-05-15T11:36:07.340Z,14.78
2019-05-15T11:37:07.342Z,14.92
2019-05-15T11:38:10.085Z,14.72
2019-05-15T11:39:08.414Z,14.35
2019-05-15T11:40:09.988Z,14.45
2019-05-15T11:41:08.760Z,14.20
2019-05-15T11:42:08.929Z,14.43
2019-05-15T11:43:08.476Z,14.53
2019-05-15T11:44:07.313Z,14.72
2019-05-15T11:45:07.311Z,14.73
2019-05-15T11:46:09.696Z,14.78
2019-05-15T11:47:07.302Z,15.10
2019-05-15T11:48:08.979Z,14.59
2019-05-15T11:49:09.377Z,14.23
2019-05-15T11:50:08.426Z,14.23
2019-05-15T11:51:09.537Z,14.50
2019-05-15T11:52:08.753Z,14.73
2019-05-15T11:53:08.782Z,14.70
2019-05-15T11:54:08.190Z,14.88
2019-05-15T11:55:08.342Z,15.07
2019-05-15T11:56:09.494Z,15.11
2019-05-15T11:57:08.553Z,15.07
2019-05-15T11:58:09.349Z,15.00
2019-05-15T11:59:08.503Z,14.73
2019-05-15T12:00:15.099Z,14.60
2019-05-15T12:01:08.623Z,14.70
2019-05-15T12:02:08.542Z,14.96
2019-05-15T12:03:09.034Z,14.78
2019-05-15T12:04:09.208Z,14.86
2019-05-15T12:05:09.261Z,14.99
2019-05-15T12:06:15.844Z,15.33
2019-05-15T12:07:08.736Z,15.42
2019-05-15T12:08:09.043Z,15.54
2019-05-15T12:09:09.157Z,15.72
2019-05-15T12:10:10.505Z,15.97
2019-05-15T12:11:11.958Z,16.09
2019-05-15T12:12:08.804Z,15.70
2019-05-15T12:13:09.767Z,15.36
2019-05-15T12:14:08.483Z,15.42
2019-05-15T12:15:07.217Z,15.67
2019-05-15T12:16:07.244Z,15.95
2019-05-15T12:17:15.001Z,16.29
2019-05-15T12:18:08.793Z,16.47
2019-05-15T12:19:16.637Z,16.56
2019-05-15T12:20:10.528Z,16.46
2019-05-15T12:21:07.199Z,16.68
2019-05-15T12:22:07.195Z,16.75
2019-05-15T12:23:08.987Z,16.41
2019-05-15T12:24:08.999Z,16.21
2019-05-15T12:25:09.803Z,15.90
2019-05-15T12:26:09.100Z,15.47
2019-05-15T12:27:15.340Z,15.40
2019-05-15T12:28:09.471Z,15.39
2019-05-15T12:29:09.888Z,15.10
2019-05-15T12:30:09.952Z,14.85
2019-05-15T12:31:08.970Z,15.04
2019-05-15T12:32:23.519Z,15.09
2019-05-15T12:33:09.210Z,15.19
2019-05-15T12:34:09.078Z,15.04
2019-05-15T12:35:07.180Z,15.17
2019-05-15T12:36:10.504Z,15.07
2019-05-15T12:37:09.790Z,15.06
2019-05-15T12:38:10.082Z,15.10
2019-05-15T13:00:07.574Z,14.79
2019-05-15T13:01:17.542Z,14.89
2019-05-15T13:02:08.230Z,15.09
2019-05-15T13:03:09.115Z,15.33
2019-05-15T13:04:08.227Z,15.07
2019-05-15T13:05:08.476Z,15.03
2019-05-15T13:06:08.107Z,15.09
2019-05-15T13:07:13.953Z,15.10
2019-05-15T13:08:08.348Z,14.94
2019-05-15T13:09:08.582Z,15.10
2019-05-15T13:10:08.764Z,14.82
2019-05-15T13:11:10.091Z,14.65
2019-05-15T13:12:08.547Z,14.69
2019-05-15T13:13:09.667Z,14.68
2019-05-15T13:14:08.162Z,14.66
2019-05-15T13:15:08.210Z,14.77
2019-05-15T13:16:07.054Z,14.85
2019-05-15T13:17:07.048Z,14.88
2019-05-15T13:18:12.852Z,14.78
2019-05-15T13:19:07.037Z,14.70
2019-05-15T13:20:07.034Z,14.88
2019-05-15T13:21:07.032Z,14.94
2019-05-15T13:22:17.411Z,14.82
2019-05-15T13:23:07.022Z,14.66
2019-05-15T13:24:08.103Z,14.66
2019-05-15T13:25:08.404Z,14.68
2019-05-15T13:26:21.472Z,14.54